Time;durP1;ratioP1;P1;durP2;ratioP2;P2;SDS_P1;SDS_P2;PMS_P1;PMS_P2;Temp;Humidity;BMP_temperature;BMP_pressure;BME280_temperature;BME280_humidity;BME280_pressure;Samples;Min_cycle;Max_cycle;Signal;HPM_P1;HPM_P2
2022/03/11 00:01:41;;;;;;;10.25;6.00;;;5.90;72.80;;;;;;2101339;68;20197;-71
2022/03/11 00:04:26;;;;;;;11.13;6.55;;;5.90;73.10;;;;;;2097137;68;20308;-69
2022/03/11 00:07:13;;;;;;;11.00;6.07;;;5.80;73.70;;;;;;2097863;68;20314;-69
2022/03/11 00:09:57;;;;;;;9.95;5.82;;;5.80;74.30;;;;;;2104017;68;20252;-71
2022/03/11 00:12:39;;;;;;;10.32;6.07;;;5.80;74.40;;;;;;2109861;67;20854;-70
2022/03/11 00:15:23;;;;;;;7.50;6.32;;;5.70;75.80;;;;;;2118616;67;20259;-71
2022/03/11 00:18:08;;;;;;;10.57;6.15;;;5.70;76.00;;;;;;2132020;67;20440;-70
2022/03/11 00:20:51;;;;;;;8.98;6.63;;;5.70;77.00;;;;;;2140001;66;20203;-71
2022/03/11 00:23:36;;;;;;;9.40;6.32;;;5.70;77.10;;;;;;2139268;67;20347;-70
2022/03/11 00:26:18;;;;;;;10.30;6.18;;;5.60;77.80;;;;;;2123886;67;20271;-71
2022/03/11 00:29:01;;;;;;;13.88;6.00;;;5.60;78.80;;;;;;2125472;67;20257;-70
2022/03/11 00:31:47;;;;;;;10.07;5.85;;;5.50;79.80;;;;;;2132708;66;20331;-70
2022/03/11 00:34:34;;;;;;;9.88;5.93;;;5.50;80.20;;;;;;2139402;67;20174;-70
2022/03/11 00:37:19;;;;;;;9.90;5.80;;;5.50;80.50;;;;;;2146687;66;20634;-70
2022/03/11 00:40:04;;;;;;;;;;;5.40;80.80;;;;;;2144828;66;20203;-70
2022/03/11 00:42:46;;;;;;;10.00;5.97;;;5.40;83.80;;;;;;2143236;66;20658;-70
2022/03/11 00:45:28;;;;;;;10.82;5.95;;;5.40;81.30;;;;;;2146709;66;20381;-70
2022/03/11 00:48:10;;;;;;;9.68;5.13;;;5.40;82.80;;;;;;2160912;66;20199;-70
2022/03/11 00:50:54;;;;;;;11.40;6.25;;;5.40;83.70;;;;;;2153512;66;20257;-71
2022/03/11 00:53:38;;;;;;;8.52;5.88;;;5.40;84.70;;;;;;2151906;66;20337;-70
2022/03/11 00:56:21;;;;;;;10.32;6.50;;;5.30;85.30;;;;;;2141382;66;20179;-70
2022/03/11 00:59:06;;;;;;;14.77;6.07;;;5.60;86.60;;;;;;2107206;67;20392;-69
2022/03/11 01:01:49;;;;;;;7.68;6.28;;;5.30;87.20;;;;;;2128475;67;20717;-70
2022/03/11 01:04:34;;;;;;;9.48;6.32;;;5.30;89.00;;;;;;2129040;67;20329;-70
2022/03/11 01:07:18;;;;;;;8.68;6.40;;;5.20;89.70;;;;;;2138898;66;20223;-70
2022/03/11 01:10:03;;;;;;;10.93;6.65;;;5.20;90.30;;;;;;2131281;67;20271;-69
2022/03/11 01:12:46;;;;;;;10.40;5.82;;;5.20;90.80;;;;;;2125169;67;20372;-71
2022/03/11 01:15:29;;;;;;;9.88;6.32;;;5.20;91.10;;;;;;2131041;67;20198;-69
2022/03/11 01:18:12;;;;;;;9.07;6.65;;;5.10;91.10;;;;;;2138918;67;20405;-70
2022/03/11 01:20:58;;;;;;;;;;;5.10;92.10;;;;;;2134896;67;20378;-69
2022/03/11 01:23:43;;;;;;;10.57;6.80;;;5.10;96.00;;;;;;2134317;67;20159;-69
2022/03/11 01:26:25;;;;;;;16.70;7.32;;;5.10;92.70;;;;;;2133762;67;20175;-70
2022/03/11 01:29:07;;;;;;;15.07;7.55;;;5.10;92.80;;;;;;2141010;67;20363;-71
2022/03/11 01:31:53;;;;;;;10.75;7.07;;;5.10;93.90;;;;;;2140410;67;20175;-70
2022/03/11 01:34:37;;;;;;;14.30;8.50;;;5.00;93.60;;;;;;2140172;67;20213;-70
2022/03/11 01:37:23;;;;;;;11.88;8.55;;;5.00;94.50;;;;;;2135873;67;20780;-69
2022/03/11 01:40:07;;;;;;;16.65;7.05;;;5.00;94.80;;;;;;2126036;67;20204;-71
2022/03/11 01:42:49;;;;;;;13.95;8.30;;;5.00;95.30;;;;;;2120244;67;20247;-70
2022/03/11 01:45:31;;;;;;;9.27;7.10;;;5.00;96.20;;;;;;2125309;67;20180;-70
2022/03/11 01:48:13;;;;;;;11.98;8.52;;;5.00;95.70;;;;;;2118407;67;20257;-69
2022/03/11 01:50:55;;;;;;;12.57;7.47;;;4.90;96.20;;;;;;2118764;67;20212;-70
2022/03/11 01:53:37;;;;;;;11.85;7.65;;;4.90;97.00;;;;;;2139985;67;20223;-70
2022/03/11 01:56:20;;;;;;;14.77;8.05;;;4.80;98.30;;;;;;2140061;67;20788;-69
2022/03/11 01:59:06;;;;;;;11.27;8.07;;;4.80;97.80;;;;;;2132489;67;20342;-69
2022/03/11 02:01:49;;;;;;;11.95;8.88;;;4.80;98.40;;;;;;2132891;67;20580;-70
2022/03/11 02:04:33;;;;;;;13.32;8.15;;;4.80;98.30;;;;;;2120602;67;20694;-71
2022/03/11 02:07:15;;;;;;;11.30;8.13;;;4.70;99.20;;;;;;2133032;67;20168;-72
2022/03/11 02:09:56;;;;;;;13.27;8.68;;;4.60;99.30;;;;;;2132632;67;20215;-70
2022/03/11 02:12:38;;;;;;;14.20;8.60;;;4.60;99.90;;;;;;2132815;67;20254;-71
2022/03/11 02:15:20;;;;;;;15.70;9.23;;;4.60;99.90;;;;;;2145029;66;20178;-71
2022/03/11 02:18:02;;;;;;;13.55;8.52;;;4.60;99.90;;;;;;2134818;67;20399;-70
2022/03/11 02:20:46;;;;;;;14.20;9.40;;;4.50;99.90;;;;;;2125360;67;20451;-71
2022/03/11 02:23:57;;;;;;;14.63;9.85;;;4.50;99.90;;;;;;2132961;67;20191;-70
2022/03/11 02:26:42;;;;;;;13.85;10.13;;;4.50;99.90;;;;;;2125823;67;20224;-68
2022/03/11 02:29:26;;;;;;;13.32;9.32;;;4.70;99.90;;;;;;2112362;67;20414;-71
2022/03/11 02:32:10;;;;;;;16.70;10.15;;;4.40;99.90;;;;;;2119170;67;20802;-71
2022/03/11 02:34:53;;;;;;;15.30;10.13;;;4.40;99.90;;;;;;2134196;67;20321;-69
2022/03/11 02:37:36;;;;;;;21.50;11.02;;;4.30;99.90;;;;;;2131257;67;20330;-71
2022/03/11 02:40:20;;;;;;;16.10;9.98;;;4.30;99.90;;;;;;2119288;67;20761;-70
2022/03/11 02:43:02;;;;;;;17.77;11.43;;;4.30;99.90;;;;;;2117143;67;20264;-71
2022/03/11 02:45:44;;;;;;;17.10;11.15;;;4.30;99.90;;;;;;2112987;67;20189;-70
2022/03/11 02:48:25;;;;;;;15.75;10.57;;;4.20;99.90;;;;;;2113754;67;20623;-69
2022/03/11 02:51:09;;;;;;;17.17;11.48;;;4.20;99.90;;;;;;2117417;67;20185;-70
2022/03/11 02:53:52;;;;;;;17.75;11.95;;;4.20;99.90;;;;;;2106614;68;20257;-69
2022/03/11 02:56:35;;;;;;;19.00;11.40;;;4.10;99.90;;;;;;2105211;67;20340;-69
2022/03/11 02:59:21;;;;;;;16.83;11.35;;;4.30;99.90;;;;;;2124536;67;20244;-70
2022/03/11 03:02:03;;;;;;;17.65;11.88;;;4.10;99.90;;;;;;2135249;67;20332;-69
2022/03/11 03:04:46;;;;;;;18.13;11.85;;;4.10;99.90;;;;;;2134487;67;20282;-69
2022/03/11 03:07:30;;;;;;;21.77;13.27;;;4.10;99.90;;;;;;2131656;67;20323;-70
2022/03/11 03:10:15;;;;;;;19.13;11.05;;;4.00;99.90;;;;;;2128581;67;20713;-69
2022/03/11 03:12:57;;;;;;;18.38;12.75;;;4.00;99.90;;;;;;2132802;67;20268;-70
2022/03/11 03:15:39;;;;;;;18.05;12.57;;;3.80;99.90;;;;;;2118560;67;20202;-70
2022/03/11 03:18:22;;;;;;;18.52;12.35;;;3.90;99.90;;;;;;2104570;68;20385;-69
2022/03/11 03:21:08;;;;;;;21.92;12.60;;;3.90;99.90;;;;;;2091656;68;20216;-68
2022/03/11 03:23:50;;;;;;;21.75;12.70;;;3.90;99.90;;;;;;2097981;68;20789;-70
2022/03/11 03:26:31;;;;;;;23.17;13.90;;;3.80;99.90;;;;;;2110059;67;20252;-70
2022/03/11 03:29:13;;;;;;;21.77;13.48;;;3.80;99.90;;;;;;2118587;67;20177;-71
2022/03/11 03:31:58;;;;;;;22.80;12.98;;;3.80;99.90;;;;;;2117626;67;20173;-70
2022/03/11 03:34:39;;;;;;;16.48;13.02;;;3.70;99.90;;;;;;2118313;67;20263;-69
2022/03/11 03:37:21;;;;;;;21.00;13.43;;;3.70;99.90;;;;;;2125469;67;20202;-70
2022/03/11 03:40:07;;;;;;;21.55;13.93;;;3.70;99.90;;;;;;2132767;67;20809;-70
2022/03/11 03:42:50;;;;;;;22.33;13.18;;;3.60;99.90;;;;;;2146104;66;20288;-68
2022/03/11 03:45:37;;;;;;;21.67;14.52;;;3.60;99.90;;;;;;2150342;66;20301;-69
2022/03/11 03:48:23;;;;;;;21.95;14.35;;;3.60;99.90;;;;;;2140155;67;20443;-71
2022/03/11 03:51:06;;;;;;;;;;;3.60;99.90;;;;;;2134553;67;20250;-69
2022/03/11 03:53:48;;;;;;;19.92;13.13;;;3.60;99.90;;;;;;2145795;66;20136;-69
2022/03/11 03:56:30;;;;;;;26.25;14.77;;;3.60;99.90;;;;;;2152434;66;20583;-69
2022/03/11 03:59:15;;;;;;;24.98;13.35;;;3.60;99.90;;;;;;2141848;66;20758;-70
2022/03/11 04:02:03;;;;;;;24.60;13.60;;;3.50;99.90;;;;;;2151514;66;20292;-69
2022/03/11 04:04:46;;;;;;;22.15;14.43;;;3.50;99.90;;;;;;2162345;66;20196;-70
2022/03/11 04:07:31;;;;;;;23.52;13.88;;;3.50;99.90;;;;;;2155191;66;20246;-69
2022/03/11 04:10:14;;;;;;;20.27;14.40;;;3.40;99.90;;;;;;2148886;66;20249;-70
2022/03/11 04:12:59;;;;;;;24.67;15.13;;;3.40;99.90;;;;;;2140897;67;20722;-70
2022/03/11 04:15:43;;;;;;;22.75;14.38;;;3.40;99.90;;;;;;2144817;66;20182;-70
2022/03/11 04:18:29;;;;;;;26.70;15.85;;;3.30;99.90;;;;;;2142520;67;20187;-69
2022/03/11 04:21:14;;;;;;;24.45;14.95;;;3.30;99.90;;;;;;2148733;66;20214;-70
2022/03/11 04:23:56;;;;;;;21.85;14.32;;;3.60;99.90;;;;;;2139845;67;20190;-70
2022/03/11 04:26:38;;;;;;;19.25;13.98;;;2.90;99.90;;;;;;2119390;67;20205;-70
2022/03/11 04:29:20;;;;;;;22.48;14.45;;;3.30;99.90;;;;;;2118331;67;20268;-70
2022/03/11 04:32:03;;;;;;;21.45;13.98;;;3.20;99.90;;;;;;2125981;67;20189;-68
2022/03/11 04:34:47;;;;;;;21.60;13.52;;;3.20;99.90;;;;;;2132513;67;20281;-70
2022/03/11 04:37:32;;;;;;;21.45;13.75;;;3.20;99.90;;;;;;2139092;66;20196;-69
2022/03/11 04:40:20;;;;;;;23.48;15.50;;;3.20;99.90;;;;;;2152864;66;20258;-70
2022/03/11 04:43:02;;;;;;;21.02;14.57;;;3.10;99.90;;;;;;2118797;67;20255;-69
2022/03/11 04:45:44;;;;;;;23.92;14.30;;;3.10;99.90;;;;;;2118483;67;20392;-70
2022/03/11 04:48:25;;;;;;;21.50;14.52;;;3.10;99.90;;;;;;2127369;67;20295;-69
2022/03/11 04:51:11;;;;;;;27.85;15.25;;;3.00;99.90;;;;;;2137626;66;20191;-69
2022/03/11 04:53:59;;;;;;;20.58;13.90;;;3.00;99.90;;;;;;2125570;67;20374;-69
2022/03/11 04:56:43;;;;;;;23.08;13.93;;;3.00;99.90;;;;;;2126613;67;20227;-69
2022/03/11 04:59:26;;;;;;;23.17;14.85;;;3.00;99.90;;;;;;2117570;67;20290;-69
2022/03/11 05:02:10;;;;;;;;;;;3.10;99.90;;;;;;2107338;67;20562;-69
2022/03/11 05:04:52;;;;;;;26.75;15.07;;;2.90;99.90;;;;;;2114250;67;20052;-70
2022/03/11 05:07:35;;;;;;;21.13;13.70;;;3.20;99.90;;;;;;2132730;67;20407;-70
2022/03/11 05:10:17;;;;;;;25.02;14.77;;;2.90;99.90;;;;;;2140029;66;20873;-70
2022/03/11 05:12:59;;;;;;;23.67;14.30;;;2.80;99.90;;;;;;2127033;67;20389;-69
2022/03/11 05:15:44;;;;;;;24.33;14.68;;;2.80;99.90;;;;;;2124753;67;20706;-70
2022/03/11 05:18:27;;;;;;;23.48;15.88;;;2.80;99.90;;;;;;2125890;67;20750;-69
2022/03/11 05:21:13;;;;;;;20.80;13.90;;;2.80;99.90;;;;;;2129255;67;20184;-70
2022/03/11 05:24:00;;;;;;;21.60;14.85;;;2.70;99.90;;;;;;2132748;67;20242;-70
2022/03/11 05:26:45;;;;;;;21.05;13.82;;;2.70;99.90;;;;;;2119270;67;20897;-70
2022/03/11 05:29:31;;;;;;;26.38;15.25;;;2.80;99.90;;;;;;2111527;67;20203;-69
2022/03/11 05:32:14;;;;;;;21.23;14.18;;;2.70;99.90;;;;;;2105711;68;20365;-70
2022/03/11 05:35:01;;;;;;;20.77;14.50;;;2.70;99.90;;;;;;2106678;67;20178;-70
2022/03/11 05:37:47;;;;;;;23.85;13.70;;;3.00;99.90;;;;;;2106932;67;20271;-68
2022/03/11 05:40:34;;;;;;;24.45;14.65;;;2.60;99.90;;;;;;2137019;67;20216;-70
2022/03/11 05:43:20;;;;;;;25.08;14.60;;;2.60;99.90;;;;;;2125852;67;20192;-70
2022/03/11 05:46:10;;;;;;;23.92;14.35;;;2.60;99.90;;;;;;2114253;67;20324;-69
2022/03/11 05:48:56;;;;;;;19.70;13.93;;;2.60;99.90;;;;;;2092343;68;20230;-70
2022/03/11 05:51:42;;;;;;;23.58;15.35;;;2.90;99.90;;;;;;2113453;67;20329;-70
2022/03/11 05:54:26;;;;;;;21.20;14.65;;;2.50;99.90;;;;;;2127404;67;20180;-69
2022/03/11 05:57:08;;;;;;;24.33;14.52;;;2.40;99.90;;;;;;2141213;66;20241;-70
2022/03/11 05:59:52;;;;;;;21.77;13.80;;;2.70;99.90;;;;;;2146834;66;20401;-69
2022/03/11 06:02:42;;;;;;;21.48;14.63;;;2.40;99.90;;;;;;2140080;67;20197;-70
2022/03/11 06:05:26;;;;;;;22.35;14.18;;;2.40;99.90;;;;;;2139961;66;20320;-69
2022/03/11 06:08:09;;;;;;;27.38;15.45;;;2.50;99.90;;;;;;2124055;67;20277;-69
2022/03/11 06:10:53;;;;;;;19.88;13.73;;;2.40;99.90;;;;;;2130706;67;20445;-69
2022/03/11 06:13:36;;;;;;;22.30;14.52;;;2.40;99.90;;;;;;2111831;67;20217;-69
2022/03/11 06:16:18;;;;;;;23.13;15.15;;;2.40;99.90;;;;;;2126622;67;20176;-70
2022/03/11 06:18:59;;;;;;;23.25;14.73;;;2.40;99.90;;;;;;2154488;66;20341;-69
2022/03/11 06:21:41;;;;;;;22.17;13.77;;;2.40;99.90;;;;;;2132695;67;20377;-70
2022/03/11 06:24:25;;;;;;;27.38;15.35;;;2.40;99.90;;;;;;2126609;67;20844;-70
2022/03/11 06:27:12;;;;;;;21.95;14.05;;;2.40;99.90;;;;;;2104704;68;20336;-69
2022/03/11 06:29:54;;;;;;;22.83;15.38;;;2.40;99.90;;;;;;2096954;68;20815;-70
2022/03/11 06:32:42;;;;;;;22.05;12.98;;;2.40;99.90;;;;;;2084334;68;20357;-69
2022/03/11 06:35:24;;;;;;;21.33;12.88;;;2.40;99.90;;;;;;2091371;68;20309;-70
2022/03/11 06:38:06;;;;;;;22.70;14.00;;;2.40;99.90;;;;;;2104146;68;20303;-70
2022/03/11 06:40:49;;;;;;;20.27;12.82;;;2.40;99.90;;;;;;2100554;67;20186;-70
2022/03/11 06:43:35;;;;;;;24.67;13.52;;;2.50;99.90;;;;;;2083803;68;20329;-69
2022/03/11 06:46:17;;;;;;;25.75;15.07;;;2.50;99.90;;;;;;2102285;67;20177;-70
2022/03/11 06:48:59;;;;;;;22.75;14.27;;;2.50;99.90;;;;;;2113357;67;20646;-71
2022/03/11 06:51:42;;;;;;;19.70;12.98;;;2.60;99.90;;;;;;2119271;67;20320;-68
2022/03/11 06:54:30;;;;;;;20.73;13.00;;;2.60;99.90;;;;;;2132856;67;20207;-69
2022/03/11 06:57:16;;;;;;;25.02;14.15;;;2.60;99.90;;;;;;2137548;66;20175;-69
2022/03/11 07:00:11;;;;;;;22.90;14.60;;;2.70;99.90;;;;;;2133589;67;20797;-70
2022/03/11 07:03:07;;;;;;;22.35;14.45;;;2.70;99.90;;;;;;2133106;66;20171;-71
2022/03/11 07:05:48;;;;;;;18.60;12.20;;;2.70;99.90;;;;;;2140155;67;20175;-70
2022/03/11 07:09:05;;;;;;;20.83;13.05;;;2.70;99.90;;;;;;2125610;67;20232;-69
2022/03/11 07:11:47;;;;;;;23.88;14.15;;;2.80;99.90;;;;;;2129450;67;20887;-69
2022/03/11 07:14:34;;;;;;;24.70;14.07;;;2.80;99.90;;;;;;2135328;67;20328;-69
2022/03/11 07:17:15;;;;;;;21.23;13.40;;;2.90;99.90;;;;;;2135687;67;20268;-69
2022/03/11 07:19:58;;;;;;;22.25;13.55;;;3.00;99.90;;;;;;2139051;67;20191;-68
2022/03/11 07:22:47;;;;;;;23.23;14.00;;;2.90;99.90;;;;;;2126188;67;20226;-69
2022/03/11 07:25:34;;;;;;;24.15;13.73;;;3.00;99.90;;;;;;2129220;67;20328;-69
2022/03/11 07:28:20;;;;;;;22.70;13.05;;;3.10;99.90;;;;;;2122366;67;20819;-70
2022/03/11 07:31:02;;;;;;;21.10;13.32;;;3.10;99.90;;;;;;2098039;68;20246;-70
2022/03/11 07:33:45;;;;;;;24.92;13.65;;;3.10;99.90;;;;;;2099136;68;20175;-69
2022/03/11 07:36:30;;;;;;;20.65;12.75;;;3.20;99.90;;;;;;2103659;67;20710;-69
2022/03/11 07:39:12;;;;;;;21.83;13.00;;;3.20;99.90;;;;;;2105446;68;20307;-70
2022/03/11 07:41:55;;;;;;;21.52;13.43;;;3.30;99.90;;;;;;2091030;68;20214;-71
2022/03/11 07:44:42;;;;;;;;;;;3.30;99.90;;;;;;2090637;68;20398;-69
2022/03/11 07:47:24;;;;;;;20.10;12.50;;;3.40;99.90;;;;;;2085093;68;20650;-71
2022/03/11 07:50:08;;;;;;;20.40;13.18;;;3.40;99.90;;;;;;2104597;68;20699;-70
2022/03/11 07:52:50;;;;;;;18.05;12.32;;;3.50;99.90;;;;;;2096661;68;20265;-71
2022/03/11 07:55:33;;;;;;;25.70;13.63;;;4.30;99.90;;;;;;2096641;68;20303;-70
2022/03/11 07:58:21;;;;;;;22.52;14.20;;;3.60;99.90;;;;;;2092108;68;20332;-69
2022/03/11 08:01:12;;;;;;;21.67;13.13;;;3.80;99.90;;;;;;2097590;68;20283;-70
2022/03/11 08:04:13;;;;;;;21.98;13.73;;;3.70;99.90;;;;;;2098890;68;20327;-71
2022/03/11 08:07:01;;;;;;;20.00;12.90;;;3.80;99.90;;;;;;2109929;67;20346;-68
2022/03/11 08:09:47;;;;;;;19.23;12.32;;;3.90;99.90;;;;;;2115520;67;20201;-66
2022/03/11 08:12:32;;;;;;;20.48;12.95;;;3.90;99.90;;;;;;2111326;67;20650;-66
2022/03/11 08:15:16;;;;;;;21.15;12.73;;;4.00;99.90;;;;;;2107686;67;20333;-67
2022/03/11 08:17:58;;;;;;;20.33;14.80;;;4.10;99.90;;;;;;2107498;67;20224;-68
2022/03/11 08:20:40;;;;;;;20.58;12.10;;;4.10;99.90;;;;;;2116263;67;20822;-70
2022/03/11 08:23:21;;;;;;;22.05;13.00;;;4.20;99.90;;;;;;2120896;67;20299;-70
2022/03/11 08:26:04;;;;;;;23.17;14.52;;;4.60;99.90;;;;;;2124472;67;20172;-69
2022/03/11 08:28:50;;;;;;;18.60;12.77;;;4.30;99.90;;;;;;2121109;67;20183;-68
2022/03/11 08:31:32;;;;;;;17.95;12.68;;;4.40;99.90;;;;;;2106123;67;20648;-69
2022/03/11 08:34:14;;;;;;;23.48;12.57;;;4.40;99.90;;;;;;2097317;68;20739;-68
2022/03/11 08:36:57;;;;;;;23.85;13.10;;;4.40;99.90;;;;;;2096709;68;20333;-69
2022/03/11 08:39:44;;;;;;;21.50;12.65;;;4.40;99.90;;;;;;2097189;68;20694;-68
2022/03/11 08:42:29;;;;;;;21.35;12.88;;;4.50;99.90;;;;;;2090549;68;20293;-70
2022/03/11 08:45:21;;;;;;;17.67;12.45;;;4.80;99.90;;;;;;2097898;68;20420;-70
2022/03/11 08:48:06;;;;;;;22.05;13.25;;;4.70;99.90;;;;;;2104213;68;21126;-69
2022/03/11 08:50:51;;;;;;;21.95;13.38;;;4.80;99.90;;;;;;2098468;68;20191;-71
2022/03/11 08:53:33;;;;;;;26.48;13.55;;;4.80;99.90;;;;;;2089733;68;20275;-69
2022/03/11 08:56:23;;;;;;;25.88;13.75;;;4.90;99.90;;;;;;2092204;68;20863;-69
2022/03/11 08:59:07;;;;;;;22.17;12.88;;;4.90;99.90;;;;;;2085468;68;20455;-70
2022/03/11 09:01:49;;;;;;;19.95;13.40;;;5.70;99.90;;;;;;2080554;68;20296;-69
2022/03/11 09:04:31;;;;;;;24.50;13.57;;;5.10;99.90;;;;;;2083086;68;20414;-71
2022/03/11 09:07:18;;;;;;;20.90;12.43;;;5.30;99.90;;;;;;2098395;68;20259;-71
2022/03/11 09:10:06;;;;;;;20.17;13.35;;;5.20;99.90;;;;;;2118594;67;20224;-70
2022/03/11 09:12:49;;;;;;;24.73;13.73;;;5.20;99.90;;;;;;2118760;67;20419;-69
2022/03/11 09:15:34;;;;;;;21.52;13.30;;;5.30;99.90;;;;;;2116428;67;20371;-70
2022/03/11 09:18:17;;;;;;;20.70;13.07;;;5.30;99.50;;;;;;2110951;67;20181;-67
2022/03/11 09:21:01;;;;;;;20.55;13.75;;;5.40;99.20;;;;;;2096344;68;20806;-70
2022/03/11 09:23:47;;;;;;;19.83;13.32;;;5.40;98.50;;;;;;2111284;67;20229;-70
2022/03/11 09:26:29;;;;;;;24.70;13.75;;;5.50;98.20;;;;;;2128567;67;20257;-69
2022/03/11 09:29:11;;;;;;;24.02;13.23;;;5.60;97.90;;;;;;2125039;67;20348;-69
2022/03/11 09:31:54;;;;;;;20.48;13.73;;;5.60;97.30;;;;;;2131599;67;20312;-70
2022/03/11 09:34:40;;;;;;;21.65;13.98;;;5.60;96.70;;;;;;2131639;67;20240;-70
2022/03/11 09:37:24;;;;;;;21.20;13.40;;;5.70;96.30;;;;;;2124749;67;20317;-69
2022/03/11 09:40:12;;;;;;;24.10;13.82;;;5.80;95.50;;;;;;2124776;67;20426;-68
2022/03/11 09:42:56;;;;;;;19.65;13.82;;;5.90;94.90;;;;;;2125330;67;20342;-69
2022/03/11 09:45:38;;;;;;;23.20;13.52;;;6.00;94.70;;;;;;2126122;67;20176;-70
2022/03/11 09:48:22;;;;;;;18.10;13.48;;;6.00;93.80;;;;;;2132534;67;20180;-71
2022/03/11 09:51:09;;;;;;;24.75;13.93;;;6.10;93.00;;;;;;2126157;67;20333;-70
2022/03/11 09:53:52;;;;;;;26.73;14.43;;;6.20;92.90;;;;;;2129670;67;20294;-69
2022/03/11 09:56:57;;;;;;;20.55;14.35;;;6.30;92.70;;;;;;2124641;67;20739;-73
2022/03/11 09:59:42;;;;;;;20.90;12.80;;;6.40;91.60;;;;;;2114522;67;20304;-68
2022/03/11 10:02:29;;;;;;;21.27;13.18;;;6.50;91.30;;;;;;2120389;67;20351;-69
2022/03/11 10:05:14;;;;;;;22.35;13.52;;;6.50;90.60;;;;;;2109578;67;20633;-68
2022/03/11 10:08:01;;;;;;;23.10;13.13;;;6.60;88.70;;;;;;2116385;67;20245;-69
2022/03/11 10:10:45;;;;;;;21.00;12.25;;;6.30;86.70;;;;;;2125256;67;20304;-68
2022/03/11 10:13:37;;;;;;;18.73;13.77;;;6.80;86.80;;;;;;2134514;67;20234;-68
2022/03/11 10:16:22;;;;;;;18.13;12.05;;;6.90;86.20;;;;;;2137478;67;20204;-68
2022/03/11 10:19:13;;;;;;;20.23;14.05;;;7.00;86.20;;;;;;2132576;67;20246;-69
2022/03/11 10:22:00;;;;;;;23.35;12.88;;;7.50;85.60;;;;;;2136717;67;20228;-68
2022/03/11 10:24:45;;;;;;;20.00;13.35;;;7.20;82.80;;;;;;2144108;66;20178;-68
2022/03/11 10:27:27;;;;;;;19.88;12.55;;;7.30;81.00;;;;;;2157741;66;20355;-69
2022/03/11 10:30:16;;;;;;;19.13;12.25;;;7.50;80.30;;;;;;2147373;66;20279;-69
2022/03/11 10:33:05;;;;;;;21.35;13.60;;;7.50;79.10;;;;;;2152907;66;20383;-67
2022/03/11 10:35:50;;;;;;;18.77;12.73;;;7.60;78.20;;;;;;2142846;66;20567;-69
2022/03/11 10:38:36;;;;;;;20.00;13.43;;;7.70;77.90;;;;;;2135117;67;20782;-70
2022/03/11 10:41:19;;;;;;;;;;;7.90;77.00;;;;;;2136408;67;20200;-68
2022/03/11 10:44:04;;;;;;;21.02;12.85;;;8.60;75.10;;;;;;2139970;67;20131;-69
2022/03/11 10:46:46;;;;;;;21.13;13.50;;;8.30;74.70;;;;;;2127257;67;20624;-69
2022/03/11 10:49:34;;;;;;;19.88;13.60;;;8.50;73.80;;;;;;2115817;67;20348;-69
2022/03/11 10:52:33;;;;;;;19.10;13.68;;;8.80;73.40;;;;;;2094364;68;20407;-68
2022/03/11 10:55:32;;;;;;;19.25;13.18;;;9.10;72.40;;;;;;2092345;68;20367;-69
2022/03/11 10:58:16;;;;;;;23.27;13.90;;;9.50;71.60;;;;;;2104190;68;20278;-68
2022/03/11 11:01:21;;;;;;;19.98;13.15;;;9.90;74.60;;;;;;2107160;67;20229;-68
2022/03/11 11:04:06;;;;;;;18.80;13.85;;;10.30;71.40;;;;;;2106845;67;20240;-68
2022/03/11 11:06:51;;;;;;;21.23;14.98;;;10.70;69.00;;;;;;2111153;67;20347;-69
2022/03/11 11:09:34;;;;;;;19.65;13.45;;;11.00;68.40;;;;;;2114686;67;20924;-71
2022/03/11 11:12:20;;;;;;;21.10;13.57;;;11.40;67.10;;;;;;2111195;67;20370;-69
2022/03/11 11:15:12;;;;;;;16.92;12.38;;;11.90;64.30;;;;;;2100080;68;20259;-71
2022/03/11 11:17:56;;;;;;;16.05;12.82;;;12.30;61.60;;;;;;2097596;68;20349;-71
2022/03/11 11:20:51;;;;;;;21.52;14.40;;;12.70;61.00;;;;;;2106987;67;20644;-70
2022/03/11 11:23:35;;;;;;;18.83;13.48;;;13.10;58.60;;;;;;2116332;67;20241;-69
2022/03/11 11:26:20;;;;;;;15.00;12.70;;;13.40;56.50;;;;;;2120483;67;20201;-69
2022/03/11 11:29:04;;;;;;;18.85;13.43;;;13.80;56.90;;;;;;2116809;67;20172;-69
2022/03/11 11:31:47;;;;;;;18.70;13.02;;;14.30;55.00;;;;;;2112874;67;20383;-68
2022/03/11 11:34:37;;;;;;;17.25;13.15;;;14.70;53.00;;;;;;2111315;67;20293;-68
2022/03/11 11:37:40;;;;;;;16.90;12.90;;;15.00;51.90;;;;;;2119301;67;20269;-67
2022/03/11 11:40:36;;;;;;;17.40;11.93;;;15.30;49.60;;;;;;2101879;67;20221;-68
2022/03/11 11:43:26;;;;;;;20.23;13.30;;;15.70;49.50;;;;;;1881426;68;15111517;-69
2022/03/11 11:46:16;;;;;;;16.23;12.50;;;16.00;49.00;;;;;;2110490;67;20180;-67
2022/03/11 11:49:22;;;;;;;15.13;12.13;;;16.30;47.90;;;;;;2117912;67;20757;-68
2022/03/11 11:52:30;;;;;;;14.82;12.82;;;16.70;47.00;;;;;;2133866;67;20171;-69
2022/03/11 11:55:13;;;;;;;15.10;13.33;;;17.00;44.70;;;;;;2133590;67;20570;-70
2022/03/11 11:57:57;;;;;;;13.95;11.65;;;17.10;45.00;;;;;;2134081;67;20802;-69
2022/03/11 12:00:44;;;;;;;14.30;12.55;;;17.20;44.30;;;;;;2144449;66;20233;-68
2022/03/11 12:03:51;;;;;;;18.27;12.60;;;17.50;43.00;;;;;;2145465;66;20417;-68
2022/03/11 12:06:55;;;;;;;13.43;11.82;;;17.70;41.20;;;;;;2135430;66;20651;-68
2022/03/11 12:10:00;;;;;;;15.82;12.68;;;17.90;42.40;;;;;;2117971;67;20329;-69
2022/03/11 12:12:44;;;;;;;13.35;11.63;;;18.20;41.30;;;;;;2103377;68;20209;-67
2022/03/11 12:15:27;;;;;;;20.08;13.27;;;18.30;41.80;;;;;;2103168;68;20264;-67
2022/03/11 12:18:36;;;;;;;16.00;12.50;;;18.40;41.00;;;;;;2093488;68;20292;-67
2022/03/11 12:21:29;;;;;;;12.85;11.52;;;18.70;41.00;;;;;;2078190;68;20239;-71
2022/03/11 12:24:32;;;;;;;13.52;12.07;;;18.90;40.50;;;;;;2089355;68;20395;-70
2022/03/11 12:27:53;;;;;;;15.95;11.65;;;19.30;40.50;;;;;;2094444;68;20419;-69
2022/03/11 12:30:42;;;;;;;16.65;11.90;;;19.80;39.60;;;;;;2093329;68;20328;-70
2022/03/11 12:33:31;;;;;;;13.25;11.40;;;20.30;38.40;;;;;;2101823;68;20341;-68
2022/03/11 12:36:19;;;;;;;13.43;11.98;;;20.60;37.70;;;;;;2092485;68;20280;-69
2022/03/11 12:39:06;;;;;;;13.98;11.55;;;20.90;37.40;;;;;;2092010;68;21477;-70
2022/03/11 12:41:50;;;;;;;14.10;12.02;;;21.10;37.20;;;;;;2108909;67;20285;-69
2022/03/11 12:44:49;;;;;;;16.92;12.10;;;21.30;37.00;;;;;;2116230;67;20224;-69
2022/03/11 12:47:45;;;;;;;15.43;11.88;;;21.50;36.50;;;;;;2117572;67;20237;-69
2022/03/11 12:50:30;;;;;;;12.98;11.45;;;21.70;35.50;;;;;;2107674;67;20229;-69
2022/03/11 12:53:14;;;;;;;13.65;11.93;;;21.80;35.40;;;;;;2103154;67;20183;-69
2022/03/11 12:55:59;;;;;;;13.57;11.82;;;22.00;35.10;;;;;;2100299;67;20257;-67
2022/03/11 12:58:43;;;;;;;15.15;11.80;;;22.30;34.70;;;;;;2096399;68;20614;-69
2022/03/11 13:01:28;;;;;;;16.95;12.10;;;22.90;35.20;;;;;;2103020;67;20332;-69
2022/03/11 13:04:16;;;;;;;14.52;12.52;;;23.50;33.60;;;;;;2103095;67;20377;-69
2022/03/11 13:07:02;;;;;;;12.27;11.05;;;23.90;33.00;;;;;;2114567;67;20208;-70
2022/03/11 13:09:46;;;;;;;12.80;11.55;;;24.10;32.70;;;;;;2129175;67;20601;-69
2022/03/11 13:12:32;;;;;;;16.70;10.95;;;24.60;32.60;;;;;;2143246;66;20219;-70
2022/03/11 13:15:21;;;;;;;14.20;11.48;;;25.10;31.80;;;;;;2139216;66;20530;-69
2022/03/11 13:18:29;;;;;;;13.27;11.18;;;25.20;31.70;;;;;;2139978;66;20808;-70
2022/03/11 13:21:16;;;;;;;12.85;11.45;;;26.00;31.10;;;;;;2134865;67;20600;-70
2022/03/11 13:24:01;;;;;;;16.00;11.40;;;26.30;30.40;;;;;;2131863;67;20690;-71
2022/03/11 13:26:44;;;;;;;13.15;11.15;;;26.60;30.00;;;;;;2118123;67;20245;-71
2022/03/11 13:29:30;;;;;;;15.38;11.30;;;27.10;29.60;;;;;;2118351;67;20217;-69
2022/03/11 13:32:15;;;;;;;12.77;11.18;;;27.40;29.40;;;;;;2111619;67;20342;-70
2022/03/11 13:35:05;;;;;;;15.00;11.40;;;27.60;29.10;;;;;;2111117;67;20381;-72
2022/03/11 13:37:47;;;;;;;12.57;10.65;;;27.60;29.00;;;;;;2105847;67;20356;-71
2022/03/11 13:40:29;;;;;;;12.63;9.63;;;27.30;28.80;;;;;;2102408;67;20370;-72
2022/03/11 13:43:10;;;;;;;12.38;10.60;;;27.00;29.00;;;;;;2107082;67;20742;-70
2022/03/11 13:45:55;;;;;;;13.73;11.15;;;27.10;29.30;;;;;;2116402;67;20229;-71
2022/03/11 13:48:44;;;;;;;11.73;10.52;;;27.20;28.90;;;;;;2119549;67;20204;-74
2022/03/11 13:51:43;;;;;;;11.45;9.43;;;27.30;28.80;;;;;;2117198;67;20339;-69
2022/03/11 13:54:42;;;;;;;12.80;10.68;;;27.50;28.40;;;;;;2099203;68;20179;-68
2022/03/11 13:57:30;;;;;;;10.98;9.98;;;27.00;28.80;;;;;;2099816;68;20249;-70
2022/03/11 14:00:21;;;;;;;14.30;10.00;;;27.00;28.70;;;;;;2105951;67;20307;-70
2022/03/11 14:03:15;;;;;;;12.07;10.32;;;27.30;28.80;;;;;;2100344;68;20450;-70
2022/03/11 14:05:59;;;;;;;13.73;10.43;;;27.30;28.60;;;;;;2114676;67;20754;-71
2022/03/11 14:08:50;;;;;;;11.95;10.52;;;27.60;28.30;;;;;;2114996;67;20305;-70
2022/03/11 14:11:34;;;;;;;11.93;10.10;;;27.70;28.10;;;;;;2101723;67;20910;-70
2022/03/11 14:14:25;;;;;;;11.97;10.20;;;27.70;28.00;;;;;;2104474;68;20640;-69